sensor_id;sensor_type;location;lat;lon;timestamp;P1;durP1;ratioP1;P2;durP2;ratioP2
24173;SDS011;12324;48.146;11.502;2022-09-12T00:01:34;3.40;;;2.33;;
24173;SDS011;12324;48.146;11.502;2022-09-12T00:04:00;5.45;;;2.90;;
24173;SDS011;12324;48.146;11.502;2022-09-12T00:06:36;3.00;;;2.10;;
24173;SDS011;12324;48.146;11.502;2022-09-12T00:09:05;4.90;;;2.78;;
24173;SDS011;12324;48.146;11.502;2022-09-12T00:11:37;4.50;;;2.75;;
24173;SDS011;12324;48.146;11.502;2022-09-12T00:14:06;6.22;;;2.70;;
24173;SDS011;12324;48.146;11.502;2022-09-12T00:16:34;4.57;;;2.35;;
24173;SDS011;12324;48.146;11.502;2022-09-12T00:19:02;6.40;;;2.53;;
24173;SDS011;12324;48.146;11.502;2022-09-12T00:21:30;6.60;;;2.88;;
24173;SDS011;12324;48.146;11.502;2022-09-12T00:23:58;6.28;;;2.65;;
24173;SDS011;12324;48.146;11.502;2022-09-12T00:26:25;6.28;;;2.53;;
24173;SDS011;12324;48.146;11.502;2022-09-12T00:28:52;7.07;;;2.97;;
24173;SDS011;12324;48.146;11.502;2022-09-12T00:31:20;3.88;;;2.50;;
24173;SDS011;12324;48.146;11.502;2022-09-12T00:33:51;6.00;;;2.75;;
24173;SDS011;12324;48.146;11.502;2022-09-12T00:36:21;6.35;;;2.47;;
24173;SDS011;12324;48.146;11.502;2022-09-12T00:38:49;5.43;;;2.78;;
24173;SDS011;12324;48.146;11.502;2022-09-12T00:41:38;5.85;;;2.58;;
24173;SDS011;12324;48.146;11.502;2022-09-12T00:46:50;5.75;;;2.80;;
24173;SDS011;12324;48.146;11.502;2022-09-12T00:49:27;6.22;;;3.03;;
24173;SDS011;12324;48.146;11.502;2022-09-12T00:51:55;9.68;;;3.28;;
24173;SDS011;12324;48.146;11.502;2022-09-12T00:54:40;8.48;;;3.70;;
24173;SDS011;12324;48.146;11.502;2022-09-12T00:57:13;12.07;;;4.22;;
24173;SDS011;12324;48.146;11.502;2022-09-12T00:59:46;6.97;;;3.03;;
24173;SDS011;12324;48.146;11.502;2022-09-12T01:02:23;7.07;;;3.20;;
24173;SDS011;12324;48.146;11.502;2022-09-12T01:04:50;10.05;;;3.08;;
24173;SDS011;12324;48.146;11.502;2022-09-12T01:07:18;4.30;;;2.72;;
24173;SDS011;12324;48.146;11.502;2022-09-12T01:09:46;6.45;;;2.78;;
24173;SDS011;12324;48.146;11.502;2022-09-12T01:12:13;6.40;;;3.00;;
24173;SDS011;12324;48.146;11.502;2022-09-12T01:14:41;6.50;;;2.95;;
24173;SDS011;12324;48.146;11.502;2022-09-12T01:17:10;3.15;;;2.30;;
24173;SDS011;12324;48.146;11.502;2022-09-12T01:22:21;3.28;;;2.25;;
24173;SDS011;12324;48.146;11.502;2022-09-12T01:33:24;6.10;;;3.00;;
24173;SDS011;12324;48.146;11.502;2022-09-12T01:39:01;5.88;;;2.83;;
24173;SDS011;12324;48.146;11.502;2022-09-12T01:44:54;7.07;;;2.20;;
24173;SDS011;12324;48.146;11.502;2022-09-12T01:47:44;3.00;;;2.10;;
24173;SDS011;12324;48.146;11.502;2022-09-12T01:52:52;3.38;;;2.20;;
24173;SDS011;12324;48.146;11.502;2022-09-12T01:58:16;5.70;;;2.65;;
24173;SDS011;12324;48.146;11.502;2022-09-12T02:00:51;3.63;;;2.40;;
24173;SDS011;12324;48.146;11.502;2022-09-12T02:03:22;4.72;;;2.40;;
24173;SDS011;12324;48.146;11.502;2022-09-12T02:06:02;9.95;;;2.35;;
24173;SDS011;12324;48.146;11.502;2022-09-12T02:08:35;3.85;;;2.17;;
24173;SDS011;12324;48.146;11.502;2022-09-12T02:11:10;3.42;;;2.05;;
24173;SDS011;12324;48.146;11.502;2022-09-12T02:16:21;5.65;;;2.83;;
24173;SDS011;12324;48.146;11.502;2022-09-12T02:18:55;5.85;;;2.67;;
24173;SDS011;12324;48.146;11.502;2022-09-12T02:21:25;2.92;;;2.20;;
24173;SDS011;12324;48.146;11.502;2022-09-12T02:23:58;5.75;;;2.60;;
24173;SDS011;12324;48.146;11.502;2022-09-12T02:26:32;6.80;;;3.13;;
24173;SDS011;12324;48.146;11.502;2022-09-12T02:29:02;4.30;;;2.38;;
24173;SDS011;12324;48.146;11.502;2022-09-12T02:31:32;5.18;;;2.40;;
24173;SDS011;12324;48.146;11.502;2022-09-12T02:36:39;5.38;;;2.78;;
24173;SDS011;12324;48.146;11.502;2022-09-12T02:39:27;4.35;;;2.22;;
24173;SDS011;12324;48.146;11.502;2022-09-12T02:41:54;3.70;;;2.40;;
24173;SDS011;12324;48.146;11.502;2022-09-12T02:44:24;7.90;;;2.35;;
24173;SDS011;12324;48.146;11.502;2022-09-12T02:46:54;3.53;;;1.90;;
24173;SDS011;12324;48.146;11.502;2022-09-12T02:49:26;4.17;;;2.40;;
24173;SDS011;12324;48.146;11.502;2022-09-12T02:51:52;4.18;;;2.25;;
24173;SDS011;12324;48.146;11.502;2022-09-12T02:54:19;3.65;;;2.03;;
24173;SDS011;12324;48.146;11.502;2022-09-12T02:56:46;2.92;;;1.95;;
24173;SDS011;12324;48.146;11.502;2022-09-12T02:59:14;3.38;;;1.70;;
24173;SDS011;12324;48.146;11.502;2022-09-12T03:07:33;3.25;;;1.80;;
24173;SDS011;12324;48.146;11.502;2022-09-12T03:15:50;4.68;;;2.13;;
24173;SDS011;12324;48.146;11.502;2022-09-12T03:18:50;6.20;;;2.35;;
24173;SDS011;12324;48.146;11.502;2022-09-12T03:21:51;2.88;;;1.73;;
24173;SDS011;12324;48.146;11.502;2022-09-12T03:24:33;4.03;;;2.17;;
24173;SDS011;12324;48.146;11.502;2022-09-12T03:27:08;3.53;;;1.90;;
24173;SDS011;12324;48.146;11.502;2022-09-12T03:29:39;3.95;;;2.30;;
24173;SDS011;12324;48.146;11.502;2022-09-12T03:32:08;5.15;;;2.30;;
24173;SDS011;12324;48.146;11.502;2022-09-12T03:34:34;4.72;;;2.17;;
24173;SDS011;12324;48.146;11.502;2022-09-12T03:37:01;5.72;;;2.33;;
24173;SDS011;12324;48.146;11.502;2022-09-12T03:39:29;3.28;;;2.28;;
24173;SDS011;12324;48.146;11.502;2022-09-12T03:41:56;3.35;;;2.10;;
24173;SDS011;12324;48.146;11.502;2022-09-12T03:44:23;3.85;;;2.28;;
24173;SDS011;12324;48.146;11.502;2022-09-12T03:46:50;3.83;;;2.40;;
24173;SDS011;12324;48.146;11.502;2022-09-12T03:49:17;6.45;;;2.17;;
24173;SDS011;12324;48.146;11.502;2022-09-12T03:51:44;3.30;;;2.15;;
24173;SDS011;12324;48.146;11.502;2022-09-12T03:54:10;2.83;;;2.03;;
24173;SDS011;12324;48.146;11.502;2022-09-12T03:56:37;4.32;;;2.40;;
24173;SDS011;12324;48.146;11.502;2022-09-12T03:59:06;3.13;;;1.90;;
24173;SDS011;12324;48.146;11.502;2022-09-12T04:01:33;5.38;;;2.10;;
24173;SDS011;12324;48.146;11.502;2022-09-12T04:04:00;4.05;;;2.30;;
24173;SDS011;12324;48.146;11.502;2022-09-12T04:06:26;2.92;;;2.00;;
24173;SDS011;12324;48.146;11.502;2022-09-12T04:08:53;3.35;;;2.20;;
24173;SDS011;12324;48.146;11.502;2022-09-12T04:11:20;3.83;;;2.22;;
24173;SDS011;12324;48.146;11.502;2022-09-12T04:13:48;7.47;;;2.30;;
24173;SDS011;12324;48.146;11.502;2022-09-12T04:16:15;2.53;;;1.80;;
24173;SDS011;12324;48.146;11.502;2022-09-12T04:18:43;4.57;;;2.28;;
24173;SDS011;12324;48.146;11.502;2022-09-12T04:21:11;3.33;;;2.13;;
24173;SDS011;12324;48.146;11.502;2022-09-12T04:23:40;2.90;;;1.98;;
24173;SDS011;12324;48.146;11.502;2022-09-12T04:26:07;5.00;;;2.33;;
24173;SDS011;12324;48.146;11.502;2022-09-12T04:28:35;3.55;;;2.20;;
24173;SDS011;12324;48.146;11.502;2022-09-12T04:31:07;4.95;;;2.38;;
24173;SDS011;12324;48.146;11.502;2022-09-12T04:33:37;4.32;;;1.90;;
24173;SDS011;12324;48.146;11.502;2022-09-12T04:36:04;4.70;;;2.13;;
24173;SDS011;12324;48.146;11.502;2022-09-12T04:38:33;4.00;;;2.13;;
24173;SDS011;12324;48.146;11.502;2022-09-12T04:43:59;3.15;;;1.73;;
24173;SDS011;12324;48.146;11.502;2022-09-12T04:46:36;6.93;;;2.33;;
24173;SDS011;12324;48.146;11.502;2022-09-12T04:49:04;3.38;;;2.10;;
24173;SDS011;12324;48.146;11.502;2022-09-12T04:51:32;4.18;;;2.33;;
24173;SDS011;12324;48.146;11.502;2022-09-12T04:54:03;3.60;;;2.22;;
24173;SDS011;12324;48.146;11.502;2022-09-12T04:56:36;4.07;;;2.55;;
24173;SDS011;12324;48.146;11.502;2022-09-12T04:59:04;4.22;;;2.17;;
24173;SDS011;12324;48.146;11.502;2022-09-12T05:01:32;3.72;;;2.05;;
24173;SDS011;12324;48.146;11.502;2022-09-12T05:03:58;4.93;;;2.42;;
24173;SDS011;12324;48.146;11.502;2022-09-12T05:06:26;5.13;;;2.10;;
24173;SDS011;12324;48.146;11.502;2022-09-12T05:08:55;3.50;;;2.35;;
24173;SDS011;12324;48.146;11.502;2022-09-12T05:11:24;3.53;;;2.20;;
24173;SDS011;12324;48.146;11.502;2022-09-12T05:14:12;2.90;;;2.25;;
24173;SDS011;12324;48.146;11.502;2022-09-12T05:16:39;4.45;;;2.17;;
24173;SDS011;12324;48.146;11.502;2022-09-12T05:19:06;3.65;;;2.35;;
24173;SDS011;12324;48.146;11.502;2022-09-12T05:21:34;4.05;;;2.55;;
24173;SDS011;12324;48.146;11.502;2022-09-12T05:24:00;5.90;;;2.33;;
24173;SDS011;12324;48.146;11.502;2022-09-12T05:26:27;4.45;;;2.30;;
24173;SDS011;12324;48.146;11.502;2022-09-12T05:28:54;4.65;;;2.35;;
24173;SDS011;12324;48.146;11.502;2022-09-12T05:31:23;3.65;;;1.75;;
24173;SDS011;12324;48.146;11.502;2022-09-12T05:33:51;2.28;;;1.90;;
24173;SDS011;12324;48.146;11.502;2022-09-12T05:36:20;6.63;;;2.53;;
24173;SDS011;12324;48.146;11.502;2022-09-12T05:38:49;2.55;;;1.98;;
24173;SDS011;12324;48.146;11.502;2022-09-12T05:41:17;2.92;;;2.20;;
24173;SDS011;12324;48.146;11.502;2022-09-12T05:46:21;4.50;;;2.40;;
24173;SDS011;12324;48.146;11.502;2022-09-12T05:48:51;9.50;;;2.50;;
24173;SDS011;12324;48.146;11.502;2022-09-12T05:51:25;4.85;;;2.05;;
24173;SDS011;12324;48.146;11.502;2022-09-12T05:53:54;3.42;;;2.05;;
24173;SDS011;12324;48.146;11.502;2022-09-12T05:56:23;4.90;;;2.65;;
24173;SDS011;12324;48.146;11.502;2022-09-12T05:59:02;3.75;;;2.08;;
24173;SDS011;12324;48.146;11.502;2022-09-12T06:01:31;8.00;;;2.70;;
24173;SDS011;12324;48.146;11.502;2022-09-12T06:04:00;5.25;;;2.67;;
24173;SDS011;12324;48.146;11.502;2022-09-12T06:09:00;7.10;;;3.33;;
24173;SDS011;12324;48.146;11.502;2022-09-12T06:11:29;7.03;;;2.58;;
24173;SDS011;12324;48.146;11.502;2022-09-12T06:13:58;6.00;;;2.65;;
24173;SDS011;12324;48.146;11.502;2022-09-12T06:16:26;6.80;;;2.50;;
24173;SDS011;12324;48.146;11.502;2022-09-12T06:18:55;5.72;;;2.70;;
24173;SDS011;12324;48.146;11.502;2022-09-12T06:21:24;5.43;;;2.33;;
24173;SDS011;12324;48.146;11.502;2022-09-12T06:23:55;6.05;;;2.78;;
24173;SDS011;12324;48.146;11.502;2022-09-12T06:26:23;5.70;;;2.05;;
24173;SDS011;12324;48.146;11.502;2022-09-12T06:28:51;5.07;;;2.50;;
24173;SDS011;12324;48.146;11.502;2022-09-12T06:31:21;5.00;;;2.35;;
24173;SDS011;12324;48.146;11.502;2022-09-12T06:33:50;4.03;;;2.55;;
24173;SDS011;12324;48.146;11.502;2022-09-12T06:36:19;5.63;;;2.80;;
24173;SDS011;12324;48.146;11.502;2022-09-12T06:38:52;5.10;;;2.80;;
24173;SDS011;12324;48.146;11.502;2022-09-12T06:41:23;5.40;;;2.13;;
24173;SDS011;12324;48.146;11.502;2022-09-12T06:43:52;5.32;;;2.63;;
24173;SDS011;12324;48.146;11.502;2022-09-12T06:46:19;4.55;;;2.53;;
24173;SDS011;12324;48.146;11.502;2022-09-12T06:48:46;3.05;;;1.95;;
24173;SDS011;12324;48.146;11.502;2022-09-12T06:51:15;4.07;;;2.17;;
24173;SDS011;12324;48.146;11.502;2022-09-12T06:53:42;2.92;;;1.88;;
24173;SDS011;12324;48.146;11.502;2022-09-12T06:58:37;6.55;;;2.72;;
24173;SDS011;12324;48.146;11.502;2022-09-12T07:01:11;4.65;;;2.63;;
24173;SDS011;12324;48.146;11.502;2022-09-12T07:03:39;4.15;;;2.58;;
24173;SDS011;12324;48.146;11.502;2022-09-12T07:06:10;5.28;;;2.70;;
24173;SDS011;12324;48.146;11.502;2022-09-12T07:08:37;4.80;;;2.50;;
24173;SDS011;12324;48.146;11.502;2022-09-12T07:11:18;4.45;;;2.60;;
24173;SDS011;12324;48.146;11.502;2022-09-12T07:13:49;6.35;;;2.92;;
24173;SDS011;12324;48.146;11.502;2022-09-12T07:16:17;5.80;;;3.20;;
24173;SDS011;12324;48.146;11.502;2022-09-12T07:18:55;5.68;;;2.70;;
24173;SDS011;12324;48.146;11.502;2022-09-12T07:21:23;7.88;;;2.60;;
24173;SDS011;12324;48.146;11.502;2022-09-12T07:23:50;3.90;;;2.50;;
24173;SDS011;12324;48.146;11.502;2022-09-12T07:26:17;5.93;;;2.88;;
24173;SDS011;12324;48.146;11.502;2022-09-12T07:28:44;6.80;;;2.75;;
24173;SDS011;12324;48.146;11.502;2022-09-12T07:31:17;4.65;;;2.53;;
24173;SDS011;12324;48.146;11.502;2022-09-12T07:33:44;5.05;;;2.72;;
24173;SDS011;12324;48.146;11.502;2022-09-12T07:36:19;6.88;;;3.38;;
24173;SDS011;12324;48.146;11.502;2022-09-12T07:38:47;6.60;;;3.03;;
24173;SDS011;12324;48.146;11.502;2022-09-12T07:41:23;6.82;;;3.22;;
24173;SDS011;12324;48.146;11.502;2022-09-12T07:43:52;7.90;;;3.00;;
24173;SDS011;12324;48.146;11.502;2022-09-12T07:46:19;4.63;;;2.70;;
24173;SDS011;12324;48.146;11.502;2022-09-12T07:48:48;6.53;;;3.15;;
24173;SDS011;12324;48.146;11.502;2022-09-12T07:51:16;4.38;;;2.60;;
24173;SDS011;12324;48.146;11.502;2022-09-12T07:53:44;6.20;;;2.83;;
24173;SDS011;12324;48.146;11.502;2022-09-12T07:56:11;6.20;;;2.92;;
24173;SDS011;12324;48.146;11.502;2022-09-12T07:58:39;8.60;;;3.38;;
24173;SDS011;12324;48.146;11.502;2022-09-12T08:01:08;6.55;;;3.30;;
24173;SDS011;12324;48.146;11.502;2022-09-12T08:03:35;7.72;;;3.60;;
24173;SDS011;12324;48.146;11.502;2022-09-12T08:06:06;8.25;;;3.90;;
24173;SDS011;12324;48.146;11.502;2022-09-12T08:08:34;11.23;;;3.25;;
24173;SDS011;12324;48.146;11.502;2022-09-12T08:11:02;8.48;;;3.75;;
24173;SDS011;12324;48.146;11.502;2022-09-12T08:13:31;8.07;;;3.78;;
24173;SDS011;12324;48.146;11.502;2022-09-12T08:15:59;6.88;;;3.25;;
24173;SDS011;12324;48.146;11.502;2022-09-12T08:18:28;7.38;;;3.25;;
24173;SDS011;12324;48.146;11.502;2022-09-12T08:20:58;5.68;;;3.20;;
24173;SDS011;12324;48.146;11.502;2022-09-12T08:23:26;6.18;;;2.95;;
24173;SDS011;12324;48.146;11.502;2022-09-12T08:25:56;6.45;;;2.85;;
24173;SDS011;12324;48.146;11.502;2022-09-12T08:28:24;6.25;;;3.08;;
24173;SDS011;12324;48.146;11.502;2022-09-12T08:30:52;4.75;;;2.40;;
24173;SDS011;12324;48.146;11.502;2022-09-12T08:33:19;3.97;;;2.67;;
24173;SDS011;12324;48.146;11.502;2022-09-12T08:35:47;3.75;;;2.20;;
24173;SDS011;12324;48.146;11.502;2022-09-12T08:38:14;2.05;;;1.85;;
24173;SDS011;12324;48.146;11.502;2022-09-12T08:40:52;11.77;;;2.50;;
24173;SDS011;12324;48.146;11.502;2022-09-12T08:43:37;6.18;;;2.63;;
24173;SDS011;12324;48.146;11.502;2022-09-12T08:46:12;4.43;;;2.33;;
24173;SDS011;12324;48.146;11.502;2022-09-12T08:48:44;4.10;;;2.45;;
24173;SDS011;12324;48.146;11.502;2022-09-12T08:51:12;3.28;;;2.33;;
24173;SDS011;12324;48.146;11.502;2022-09-12T08:53:41;4.03;;;2.28;;
24173;SDS011;12324;48.146;11.502;2022-09-12T08:56:09;5.25;;;2.47;;
24173;SDS011;12324;48.146;11.502;2022-09-12T08:58:38;4.93;;;2.60;;
24173;SDS011;12324;48.146;11.502;2022-09-12T09:01:07;6.72;;;2.22;;
24173;SDS011;12324;48.146;11.502;2022-09-12T09:06:12;3.80;;;2.25;;
24173;SDS011;12324;48.146;11.502;2022-09-12T09:13:42;3.47;;;2.22;;
24173;SDS011;12324;48.146;11.502;2022-09-12T09:16:34;4.25;;;2.30;;
24173;SDS011;12324;48.146;11.502;2022-09-12T09:19:07;6.30;;;2.40;;
24173;SDS011;12324;48.146;11.502;2022-09-12T09:21:38;4.25;;;2.45;;
24173;SDS011;12324;48.146;11.502;2022-09-12T09:24:15;4.85;;;2.30;;
24173;SDS011;12324;48.146;11.502;2022-09-12T09:29:53;8.70;;;2.33;;
24173;SDS011;12324;48.146;11.502;2022-09-12T09:32:25;3.90;;;1.92;;
24173;SDS011;12324;48.146;11.502;2022-09-12T09:34:52;3.63;;;2.20;;
24173;SDS011;12324;48.146;11.502;2022-09-12T09:37:29;6.55;;;2.45;;
24173;SDS011;12324;48.146;11.502;2022-09-12T09:42:43;3.17;;;2.17;;
24173;SDS011;12324;48.146;11.502;2022-09-12T09:45:16;3.53;;;2.25;;
24173;SDS011;12324;48.146;11.502;2022-09-12T09:47:46;5.80;;;2.47;;
24173;SDS011;12324;48.146;11.502;2022-09-12T09:50:15;5.25;;;1.98;;
24173;SDS011;12324;48.146;11.502;2022-09-12T09:52:42;3.20;;;1.85;;
24173;SDS011;12324;48.146;11.502;2022-09-12T09:55:11;2.80;;;1.90;;
24173;SDS011;12324;48.146;11.502;2022-09-12T09:57:40;4.03;;;2.10;;
24173;SDS011;12324;48.146;11.502;2022-09-12T10:05:49;4.20;;;1.95;;
24173;SDS011;12324;48.146;11.502;2022-09-12T10:08:24;4.90;;;2.28;;
24173;SDS011;12324;48.146;11.502;2022-09-12T10:10:55;2.45;;;1.58;;
24173;SDS011;12324;48.146;11.502;2022-09-12T10:13:29;3.88;;;2.05;;
24173;SDS011;12324;48.146;11.502;2022-09-12T10:15:58;4.45;;;2.45;;
24173;SDS011;12324;48.146;11.502;2022-09-12T10:18:37;3.83;;;1.70;;
24173;SDS011;12324;48.146;11.502;2022-09-12T10:21:11;4.57;;;2.20;;
24173;SDS011;12324;48.146;11.502;2022-09-12T10:23:39;5.28;;;2.40;;
24173;SDS011;12324;48.146;11.502;2022-09-12T10:26:08;3.47;;;1.73;;
24173;SDS011;12324;48.146;11.502;2022-09-12T10:28:37;3.35;;;2.35;;
24173;SDS011;12324;48.146;11.502;2022-09-12T10:31:05;5.82;;;1.90;;
24173;SDS011;12324;48.146;11.502;2022-09-12T10:33:43;3.70;;;2.10;;
24173;SDS011;12324;48.146;11.502;2022-09-12T10:36:12;2.53;;;1.88;;
24173;SDS011;12324;48.146;11.502;2022-09-12T10:38:40;8.18;;;2.35;;
24173;SDS011;12324;48.146;11.502;2022-09-12T10:41:14;4.65;;;2.03;;
24173;SDS011;12324;48.146;11.502;2022-09-12T10:43:41;5.85;;;2.47;;
24173;SDS011;12324;48.146;11.502;2022-09-12T10:48:42;3.30;;;1.90;;
24173;SDS011;12324;48.146;11.502;2022-09-12T10:53:50;2.58;;;1.95;;
24173;SDS011;12324;48.146;11.502;2022-09-12T10:58:54;3.13;;;1.73;;
24173;SDS011;12324;48.146;11.502;2022-09-12T11:06:38;2.40;;;1.77;;
24173;SDS011;12324;48.146;11.502;2022-09-12T11:09:12;4.43;;;2.42;;
24173;SDS011;12324;48.146;11.502;2022-09-12T11:14:12;6.00;;;2.20;;
24173;SDS011;12324;48.146;11.502;2022-09-12T11:21:58;2.83;;;1.70;;
24173;SDS011;12324;48.146;11.502;2022-09-12T11:29:49;6.97;;;2.80;;
24173;SDS011;12324;48.146;11.502;2022-09-12T11:32:29;4.82;;;2.40;;
24173;SDS011;12324;48.146;11.502;2022-09-12T11:39:55;3.65;;;1.92;;
24173;SDS011;12324;48.146;11.502;2022-09-12T11:42:28;3.10;;;1.92;;
24173;SDS011;12324;48.146;11.502;2022-09-12T11:45:02;5.38;;;2.65;;
24173;SDS011;12324;48.146;11.502;2022-09-12T11:47:31;4.85;;;1.90;;
24173;SDS011;12324;48.146;11.502;2022-09-12T11:50:00;3.28;;;1.95;;
24173;SDS011;12324;48.146;11.502;2022-09-12T11:52:32;3.22;;;2.10;;
24173;SDS011;12324;48.146;11.502;2022-09-12T11:55:06;3.15;;;2.05;;
24173;SDS011;12324;48.146;11.502;2022-09-12T11:57:50;3.78;;;1.95;;
24173;SDS011;12324;48.146;11.502;2022-09-12T12:02:57;2.80;;;1.70;;
24173;SDS011;12324;48.146;11.502;2022-09-12T12:08:08;3.17;;;2.10;;
24173;SDS011;12324;48.146;11.502;2022-09-12T12:10:40;3.30;;;2.08;;
24173;SDS011;12324;48.146;11.502;2022-09-12T12:13:18;3.38;;;2.22;;
24173;SDS011;12324;48.146;11.502;2022-09-12T12:15:47;2.70;;;1.92;;
24173;SDS011;12324;48.146;11.502;2022-09-12T12:18:17;4.22;;;1.88;;
24173;SDS011;12324;48.146;11.502;2022-09-12T12:20:45;3.00;;;2.05;;
24173;SDS011;12324;48.146;11.502;2022-09-12T12:23:31;3.00;;;2.03;;
24173;SDS011;12324;48.146;11.502;2022-09-12T12:26:00;3.13;;;1.98;;
24173;SDS011;12324;48.146;11.502;2022-09-12T12:31:15;4.35;;;2.08;;
24173;SDS011;12324;48.146;11.502;2022-09-12T12:36:28;3.88;;;2.08;;
24173;SDS011;12324;48.146;11.502;2022-09-12T12:38:55;2.08;;;1.80;;
24173;SDS011;12324;48.146;11.502;2022-09-12T12:43:53;3.42;;;2.03;;
24173;SDS011;12324;48.146;11.502;2022-09-12T12:46:25;3.97;;;2.20;;
24173;SDS011;12324;48.146;11.502;2022-09-12T12:49:09;8.00;;;2.88;;
24173;SDS011;12324;48.146;11.502;2022-09-12T12:51:46;3.42;;;1.75;;
24173;SDS011;12324;48.146;11.502;2022-09-12T12:57:01;3.25;;;1.70;;
24173;SDS011;12324;48.146;11.502;2022-09-12T12:59:29;6.32;;;2.40;;
24173;SDS011;12324;48.146;11.502;2022-09-12T13:01:56;3.55;;;2.00;;
24173;SDS011;12324;48.146;11.502;2022-09-12T13:04:26;3.15;;;2.13;;
24173;SDS011;12324;48.146;11.502;2022-09-12T13:07:04;2.63;;;1.65;;
24173;SDS011;12324;48.146;11.502;2022-09-12T13:09:38;3.92;;;2.08;;
24173;SDS011;12324;48.146;11.502;2022-09-12T13:14:55;6.07;;;1.95;;
24173;SDS011;12324;48.146;11.502;2022-09-12T13:20:34;3.72;;;2.00;;
24173;SDS011;12324;48.146;11.502;2022-09-12T13:22:53;3.60;;;2.08;;
24173;SDS011;12324;48.146;11.502;2022-09-12T13:25:25;4.93;;;1.88;;
24173;SDS011;12324;48.146;11.502;2022-09-12T13:30:39;5.22;;;1.80;;
24173;SDS011;12324;48.146;11.502;2022-09-12T13:33:15;3.47;;;2.03;;
24173;SDS011;12324;48.146;11.502;2022-09-12T13:41:12;2.97;;;1.70;;
24173;SDS011;12324;48.146;11.502;2022-09-12T13:43:55;2.72;;;1.65;;
24173;SDS011;12324;48.146;11.502;2022-09-12T13:46:26;4.60;;;2.35;;
24173;SDS011;12324;48.146;11.502;2022-09-12T13:48:56;4.93;;;1.85;;
24173;SDS011;12324;48.146;11.502;2022-09-12T13:51:25;2.88;;;1.70;;
24173;SDS011;12324;48.146;11.502;2022-09-12T13:53:54;3.00;;;1.60;;
24173;SDS011;12324;48.146;11.502;2022-09-12T13:56:23;2.15;;;1.48;;
24173;SDS011;12324;48.146;11.502;2022-09-12T13:58:57;2.35;;;1.63;;
24173;SDS011;12324;48.146;11.502;2022-09-12T14:01:39;2.25;;;1.60;;
24173;SDS011;12324;48.146;11.502;2022-09-12T14:07:00;1.38;;;1.27;;
24173;SDS011;12324;48.146;11.502;2022-09-12T14:09:54;3.28;;;1.63;;
24173;SDS011;12324;48.146;11.502;2022-09-12T14:12:36;3.88;;;1.75;;
24173;SDS011;12324;48.146;11.502;2022-09-12T14:15:16;2.58;;;1.45;;
24173;SDS011;12324;48.146;11.502;2022-09-12T14:17:48;1.77;;;1.48;;
24173;SDS011;12324;48.146;11.502;2022-09-12T14:20:17;5.50;;;1.85;;
24173;SDS011;12324;48.146;11.502;2022-09-12T14:22:45;1.60;;;1.50;;
24173;SDS011;12324;48.146;11.502;2022-09-12T14:25:17;2.17;;;1.50;;
24173;SDS011;12324;48.146;11.502;2022-09-12T14:27:52;2.35;;;1.50;;
24173;SDS011;12324;48.146;11.502;2022-09-12T14:30:21;1.75;;;1.33;;
24173;SDS011;12324;48.146;11.502;2022-09-12T14:35:37;1.80;;;1.40;;
24173;SDS011;12324;48.146;11.502;2022-09-12T14:38:53;3.13;;;1.83;;
24173;SDS011;12324;48.146;11.502;2022-09-12T14:41:35;2.58;;;1.63;;
24173;SDS011;12324;48.146;11.502;2022-09-12T14:44:06;3.10;;;1.60;;
24173;SDS011;12324;48.146;11.502;2022-09-12T14:46:41;3.72;;;1.83;;
24173;SDS011;12324;48.146;11.502;2022-09-12T14:51:58;3.22;;;1.70;;
24173;SDS011;12324;48.146;11.502;2022-09-12T14:56:54;4.72;;;2.00;;
24173;SDS011;12324;48.146;11.502;2022-09-12T15:04:53;2.35;;;1.50;;
24173;SDS011;12324;48.146;11.502;2022-09-12T15:07:41;1.83;;;1.40;;
24173;SDS011;12324;48.146;11.502;2022-09-12T15:10:34;2.88;;;1.20;;
24173;SDS011;12324;48.146;11.502;2022-09-12T15:15:36;3.17;;;1.80;;
24173;SDS011;12324;48.146;11.502;2022-09-12T15:18:04;2.92;;;1.70;;
24173;SDS011;12324;48.146;11.502;2022-09-12T15:20:32;3.13;;;1.63;;
24173;SDS011;12324;48.146;11.502;2022-09-12T15:23:01;3.08;;;1.90;;
24173;SDS011;12324;48.146;11.502;2022-09-12T15:25:28;3.22;;;1.70;;
24173;SDS011;12324;48.146;11.502;2022-09-12T15:27:55;5.07;;;1.50;;
24173;SDS011;12324;48.146;11.502;2022-09-12T15:30:21;2.72;;;1.45;;
24173;SDS011;12324;48.146;11.502;2022-09-12T15:32:48;1.95;;;1.38;;
24173;SDS011;12324;48.146;11.502;2022-09-12T15:35:16;2.35;;;1.55;;
24173;SDS011;12324;48.146;11.502;2022-09-12T15:37:44;3.47;;;1.70;;
24173;SDS011;12324;48.146;11.502;2022-09-12T15:40:11;2.35;;;1.40;;
24173;SDS011;12324;48.146;11.502;2022-09-12T15:42:38;2.28;;;1.60;;
24173;SDS011;12324;48.146;11.502;2022-09-12T15:45:11;2.25;;;1.42;;
24173;SDS011;12324;48.146;11.502;2022-09-12T15:47:45;3.13;;;1.73;;
24173;SDS011;12324;48.146;11.502;2022-09-12T15:50:11;1.90;;;1.33;;
24173;SDS011;12324;48.146;11.502;2022-09-12T15:52:38;2.28;;;1.35;;
24173;SDS011;12324;48.146;11.502;2022-09-12T15:55:11;2.85;;;1.45;;
24173;SDS011;12324;48.146;11.502;2022-09-12T15:57:48;3.08;;;1.45;;
24173;SDS011;12324;48.146;11.502;2022-09-12T16:00:15;2.25;;;1.52;;
24173;SDS011;12324;48.146;11.502;2022-09-12T16:02:43;2.70;;;1.88;;
24173;SDS011;12324;48.146;11.502;2022-09-12T16:05:13;2.03;;;1.50;;
24173;SDS011;12324;48.146;11.502;2022-09-12T16:07:42;2.55;;;1.85;;
24173;SDS011;12324;48.146;11.502;2022-09-12T16:10:13;2.97;;;1.52;;
24173;SDS011;12324;48.146;11.502;2022-09-12T16:12:44;6.00;;;1.85;;
24173;SDS011;12324;48.146;11.502;2022-09-12T16:15:15;2.13;;;1.50;;
24173;SDS011;12324;48.146;11.502;2022-09-12T16:17:46;3.05;;;1.90;;
24173;SDS011;12324;48.146;11.502;2022-09-12T16:20:13;2.20;;;1.70;;
24173;SDS011;12324;48.146;11.502;2022-09-12T16:22:40;2.40;;;1.58;;
24173;SDS011;12324;48.146;11.502;2022-09-12T16:25:07;1.92;;;1.58;;
24173;SDS011;12324;48.146;11.502;2022-09-12T16:27:34;2.50;;;1.60;;
24173;SDS011;12324;48.146;11.502;2022-09-12T16:30:02;2.55;;;1.73;;
24173;SDS011;12324;48.146;11.502;2022-09-12T16:32:31;2.13;;;1.60;;
24173;SDS011;12324;48.146;11.502;2022-09-12T16:34:58;5.63;;;2.00;;
24173;SDS011;12324;48.146;11.502;2022-09-12T16:37:24;3.05;;;1.60;;
24173;SDS011;12324;48.146;11.502;2022-09-12T16:39:51;7.80;;;1.90;;
24173;SDS011;12324;48.146;11.502;2022-09-12T16:42:18;2.85;;;1.73;;
24173;SDS011;12324;48.146;11.502;2022-09-12T16:44:45;2.13;;;1.55;;
24173;SDS011;12324;48.146;11.502;2022-09-12T16:47:12;3.55;;;2.42;;
24173;SDS011;12324;48.146;11.502;2022-09-12T16:49:39;2.15;;;1.45;;
24173;SDS011;12324;48.146;11.502;2022-09-12T16:52:06;4.88;;;2.20;;
24173;SDS011;12324;48.146;11.502;2022-09-12T16:54:33;2.13;;;1.70;;
24173;SDS011;12324;48.146;11.502;2022-09-12T16:56:59;2.60;;;1.73;;
24173;SDS011;12324;48.146;11.502;2022-09-12T16:59:26;3.53;;;2.00;;
24173;SDS011;12324;48.146;11.502;2022-09-12T17:01:53;2.92;;;1.85;;
24173;SDS011;12324;48.146;11.502;2022-09-12T17:04:19;5.50;;;2.00;;
24173;SDS011;12324;48.146;11.502;2022-09-12T17:06:48;3.45;;;2.10;;
24173;SDS011;12324;48.146;11.502;2022-09-12T17:09:15;6.88;;;1.95;;
24173;SDS011;12324;48.146;11.502;2022-09-12T17:11:44;5.63;;;2.20;;
24173;SDS011;12324;48.146;11.502;2022-09-12T17:14:12;4.70;;;2.20;;
24173;SDS011;12324;48.146;11.502;2022-09-12T17:16:40;3.17;;;2.28;;
24173;SDS011;12324;48.146;11.502;2022-09-12T17:19:16;5.65;;;2.38;;
24173;SDS011;12324;48.146;11.502;2022-09-12T17:21:48;5.03;;;2.30;;
24173;SDS011;12324;48.146;11.502;2022-09-12T17:24:15;4.03;;;2.13;;
24173;SDS011;12324;48.146;11.502;2022-09-12T17:26:43;5.05;;;2.60;;